Flight Track Log - Related Links

Times and Time Zones

All times are in EDT time to prevent confusion due to time zone crossing. See the QXE2087 flight status page for this flight to view local times or setup timezone preferences in your user account.

Time Position Orientation Groundspeed Altitude Reporting Facility
EDT Latitude Longitude Course Direction KTS MPH feet Rate Location/Type
Mon 09:44:00 AM 46.1970 -118.8182 286° West  Level FlightAware Approximate
Mon 09:45:00 AM 46.2198 -118.9256 287° West  Level FlightAware Approximate
Mon 09:46:00 AM 46.2373 -119.0069 287° West  Level FlightAware Approximate
Mon 09:47:00 AM 46.2500 -119.0894 270° West  Level FlightAware Approximate
Mon 09:48:00 AM 46.2740 -119.1961 290° West  Level FlightAware Approximate
Mon 09:49:00 AM 46.3006 -119.3021 290° West  Level FlightAware Approximate
Mon 09:50:00 AM 46.3271 -119.4083 290° West  Level FlightAware Approximate
Mon 09:51:00 AM 46.3497 -119.5155 290° West  Level FlightAware Approximate
Mon 09:52:00 AM 46.3711 -119.6220 286° West  Level FlightAware Approximate
Mon 09:53:00 AM 46.3969 -119.7284 294° West  Level FlightAware Approximate
Mon 09:54:00 AM 46.4280 -119.8321 294° West  Level FlightAware Approximate
Mon 09:55:00 AM 46.4485 -119.9410 284° West  Level FlightAware Approximate
Mon 09:56:00 AM 46.4739 -120.0480 290° West  Level FlightAware Approximate
Mon 09:57:00 AM 46.4997 -120.1548 289° West  Level FlightAware Approximate
Mon 09:58:00 AM 46.5255 -120.2618 289° West  Level FlightAware Approximate
Mon 09:59:00 AM 46.5512 -120.3688 289° West  Level FlightAware Approximate
Mon 10:00:00 AM 46.5815 -120.4729 299° West  Level FlightAware Approximate
Mon 10:01:00 AM 46.6199 -120.5714 314° West  Level FlightAware Approximate
Mon 10:02:00 AM 46.6684 -120.6595 302° West  Level FlightAware Approximate
Mon 10:03:00 AM 46.7151 -120.7484 326° Northwest  Level FlightAware Approximate
Mon 10:04:00 AM 46.7581 -120.8382 299° West  Level FlightAware Approximate
Mon 10:05:00 AM 46.7955 -120.9381 299° West  Level FlightAware Approximate
Mon 10:06:00 AM 46.8405 -121.0310 306° West  Level FlightAware Approximate
Mon 10:07:00 AM 46.8838 -121.1258 303° West  Level FlightAware Approximate
Mon 10:08:00 AM 46.9264 -121.2215 303° West  Level FlightAware Approximate
Mon 10:09:00 AM 46.9688 -121.3172 303° West  Level FlightAware Approximate
Mon 10:10:00 AM 47.0190 -121.3926 303° West  Level FlightAware Approximate
Mon 10:11:00 AM 47.0615 -121.4884 303° West  Level FlightAware Approximate
Mon 10:12:00 AM 47.0963 -121.5894 310° West  Level FlightAware Approximate
Mon 10:13:00 AM 47.1465 -121.6771 310° West  Level FlightAware Approximate
Mon 10:14:00 AM 47.1862 -121.7724 306° West  Level FlightAware Approximate
Mon 10:15:00 AM 47.2342 -121.8605 301° West  Level FlightAware Approximate
Mon 10:16:00 AM 47.2738 -121.9595 301° West  Level FlightAware Approximate
Mon 10:17:00 AM 47.3127 -122.0588 306° West  Level FlightAware Approximate
Mon 10:18:00 AM 47.3580 -122.1493 306° West  Level FlightAware Approximate
Mon 10:19:00 AM 47.4043 -122.2419 306° West  Level FlightAware Approximate
Mon 10:20:00 AM 47.4333 -122.3000 306° West  Level FlightAware Approximate
Mon 10:21:00 AM 47.4499 -122.3118 306° West  Level Estimated
Mon 10:22:00 AM 47.4499 -122.3118 306° West  Level Estimated
Mon 10:23:00 AM 47.4499 -122.3118 306° West  Level Estimated
Mon 10:24:00 AM 47.4499 -122.3118 211° Southwest  Level Estimated
Mon 10:25:00 AM 47.4499 -122.3118 211° Southwest  Level Estimated
Mon 10:26:00 AM 47.4499 -122.3118 211° Southwest  Level Estimated
Mon 10:27:00 AM 47.4499 -122.3118 176° South  Level Estimated
Mon 10:28:00 AM 47.4499 -122.3118 176° South  Level Estimated
Mon 10:29:00 AM 47.4499 -122.3118 176° South  Level Estimated
Mon 10:30:00 AM 47.4499 -122.3118 176° South  Level Estimated
Mon 10:31:00 AM 47.4499 -122.3118 34° Northeast  Level Estimated
Mon 10:32:00 AM 47.4499 -122.3118 34° Northeast  Level Estimated
Mon 10:33:00 AM 47.4499 -122.3118 34° Northeast  Level Estimated
Mon 10:34:00 AM 47.4499 -122.3118 34° Northeast  Level Estimated
Mon 10:35:00 AM 47.4499 -122.3118 34° Northeast  Level Estimated
Mon 10:36:00 AM 47.4499 -122.3118 34° Northeast  Level Estimated
Mon 10:37:00 AM 47.4499 -122.3118 34° Northeast  Level Estimated
Mon 10:38:00 AM 47.4499 -122.3118 34° Northeast  Level Estimated
Mon 10:39:00 AM 47.4499 -122.3118 34° Northeast  Level Estimated
Mon 10:40:00 AM 47.4499 -122.3118 34° Northeast  Level Estimated
Mon 10:41:00 AM 47.4499 -122.3118 34° Northeast  Level Estimated

Login

Don't have an account? Register now (free) for customized features, flight alerts, and more!